Time;durP1;ratioP1;P1;durP2;ratioP2;P2;SDS_P1;SDS_P2;PMS_P1;PMS_P2;Temp;Humidity;BMP_temperature;BMP_pressure;BME280_temperature;BME280_humidity;BME280_pressure;Samples;Min_cycle;Max_cycle;Signal;HPM_P1;HPM_P2
2022/05/12 00:00:21;;;;;;;6.62;3.30;;;;;;;5.18;100.00;100811.41;1750602;82;20928;-42
2022/05/12 00:02:47;;;;;;;5.25;3.10;;;;;;;5.13;100.00;100812.63;1750526;82;20960;-41
2022/05/12 00:05:14;;;;;;;6.12;3.10;;;;;;;5.12;100.00;100811.35;1750532;82;21253;-42
2022/05/12 00:07:43;;;;;;;5.70;3.33;;;;;;;5.10;100.00;100816.45;1750308;82;21007;-42
2022/05/12 00:10:12;;;;;;;4.42;2.67;;;;;;;5.10;100.00;100820.30;1750101;82;21081;-42
2022/05/12 00:12:39;;;;;;;5.83;2.95;;;;;;;5.16;100.00;100821.64;1750054;82;20921;-42
2022/05/12 00:15:12;;;;;;;6.87;2.98;;;;;;;5.26;100.00;100825.60;1749832;82;20960;-41
2022/05/12 00:17:38;;;;;;;3.27;2.45;;;;;;;5.36;99.55;100823.98;1749952;82;21926;-42
2022/05/12 00:20:07;;;;;;;4.37;2.55;;;;;;;5.47;98.48;100821.07;1749944;81;20877;-42
2022/05/12 00:22:34;;;;;;;9.25;3.30;;;;;;;5.53;97.78;100826.69;1722799;82;20937;-42
2022/05/12 00:25:01;;;;;;;6.50;2.80;;;;;;;5.60;97.03;100822.91;1750025;82;20865;-42
2022/05/12 00:27:28;;;;;;;7.47;2.80;;;;;;;5.71;95.91;100824.28;1749978;82;20888;-42
2022/05/12 00:29:54;;;;;;;6.90;2.50;;;;;;;5.78;93.02;100821.30;1750052;82;21256;-42
2022/05/12 00:32:21;;;;;;;6.28;2.62;;;;;;;5.87;90.74;100817.95;1722203;82;21486;-42
2022/05/12 00:34:48;;;;;;;7.75;2.75;;;;;;;5.98;89.19;100812.47;1750028;82;21000;-42
2022/05/12 00:37:15;;;;;;;3.65;2.22;;;;;;;6.08;85.54;100809.98;1750058;81;20980;-42
2022/05/12 00:39:42;;;;;;;4.15;2.30;;;;;;;6.23;83.79;100815.21;1739124;82;20865;-42
2022/05/12 00:42:08;;;;;;;3.67;2.52;;;;;;;6.27;81.94;100815.66;1749922;82;22253;-42
2022/05/12 00:44:35;;;;;;;7.33;2.60;;;;;;;6.30;81.21;100819.53;1698622;82;20908;-42
2022/05/12 00:47:03;;;;;;;8.93;2.92;;;;;;;6.32;80.30;100823.41;1750016;82;20892;-42
2022/05/12 00:49:33;;;;;;;7.30;2.58;;;;;;;6.30;79.71;100811.81;1749895;82;20921;-42
2022/05/12 00:52:17;;;;;;;5.47;2.85;;;;;;;6.30;78.70;100813.10;1750180;80;20885;-42
2022/05/12 00:54:58;;;;;;;7.65;1.98;;;;;;;6.35;77.18;100812.26;1749403;82;21146;-41
2022/05/12 00:57:40;;;;;;;10.60;2.62;;;;;;;6.42;74.50;100811.02;1743066;81;20933;-42
2022/05/12 01:00:09;;;;;;;6.95;2.47;;;;;;;6.56;72.69;100805.05;1735254;82;21490;-40
2022/05/12 01:02:36;;;;;;;3.85;2.50;;;;;;;6.65;71.81;100802.94;1715165;82;21435;-41
2022/05/12 01:05:04;;;;;;;3.92;2.20;;;;;;;6.67;71.46;100802.52;1735939;82;20882;-41
2022/05/12 01:07:31;;;;;;;4.47;2.72;;;;;;;6.68;71.07;100799.09;1736142;82;21238;-41
2022/05/12 01:09:58;;;;;;;13.98;2.55;;;;;;;6.68;70.56;100800.38;1736057;82;21004;-41
2022/05/12 01:12:25;;;;;;;6.22;2.90;;;;;;;6.66;70.67;100805.53;1735938;82;20969;-41
2022/05/12 01:14:52;;;;;;;4.47;2.42;;;;;;;6.65;71.30;100800.37;1735943;82;20961;-41
2022/05/12 01:17:19;;;;;;;7.50;2.62;;;;;;;6.62;70.73;100802.52;1736009;82;20972;-41
2022/05/12 01:19:48;;;;;;;14.40;2.70;;;;;;;6.61;70.95;100804.22;1735907;82;21245;-41
2022/05/12 01:22:50;;;;;;;5.33;2.42;;;;;;;6.59;71.16;100803.80;1735890;82;20972;-41
2022/05/12 01:25:20;;;;;;;7.83;2.60;;;;;;;6.56;76.22;100811.07;1735932;82;20989;-42
2022/05/12 01:27:47;;;;;;;9.13;2.60;;;;;;;6.49;79.75;100802.91;1715342;82;20972;-42
2022/05/12 01:30:18;;;;;;;8.55;2.20;;;;;;;6.37;80.54;100802.84;1735927;82;21407;-42
2022/05/12 01:32:46;;;;;;;5.37;2.58;;;;;;;6.26;81.18;100802.38;1736136;82;21126;-42
2022/05/12 01:35:15;;;;;;;10.72;2.25;;;;;;;6.22;81.61;100799.36;1735935;82;20882;-42
2022/05/12 01:37:43;;;;;;;5.83;2.70;;;;;;;6.19;81.15;100798.06;1735938;81;20964;-42
2022/05/12 01:40:14;;;;;;;5.03;2.08;;;;;;;6.16;78.97;100803.16;1735874;81;20933;-42
2022/05/12 01:42:41;;;;;;;7.08;2.35;;;;;;;6.22;77.92;100798.48;1714882;82;20882;-42
2022/05/12 01:45:09;;;;;;;4.50;2.27;;;;;;;6.23;77.08;100798.91;1735915;82;21142;-42
2022/05/12 01:47:36;;;;;;;7.60;2.42;;;;;;;6.26;75.89;100797.64;1736030;82;20893;-42
2022/05/12 01:50:04;;;;;;;7.97;4.00;;;;;;;6.32;74.78;100789.53;1735964;82;20861;-42
2022/05/12 01:52:31;;;;;;;7.55;3.65;;;;;;;6.37;74.51;100788.69;1736183;82;20945;-42
2022/05/12 01:54:57;;;;;;;11.08;2.67;;;;;;;6.36;74.29;100798.55;1736124;82;20926;-42
2022/05/12 01:57:24;;;;;;;5.37;2.45;;;;;;;6.30;73.80;100795.52;1735920;82;21143;-42
2022/05/12 01:59:51;;;;;;;14.63;3.87;;;;;;;6.27;73.40;100801.52;1736036;82;21515;-42
2022/05/12 02:02:18;;;;;;;10.63;2.90;;;;;;;6.26;73.65;100797.64;1736036;82;20980;-42
2022/05/12 02:04:47;;;;;;;6.67;2.70;;;;;;;6.24;73.12;100793.80;1735883;82;20941;-42
2022/05/12 02:07:13;;;;;;;6.45;2.95;;;;;;;6.26;72.96;100795.94;1736052;82;21035;-42
2022/05/12 02:09:42;;;;;;;8.15;2.37;;;;;;;6.30;72.60;100792.53;1735881;82;20996;-42
2022/05/12 02:12:09;;;;;;;7.75;2.52;;;;;;;6.33;71.22;100792.98;1736109;82;21565;-42
2022/05/12 02:14:36;;;;;;;8.10;2.67;;;;;;;6.39;71.30;100795.58;1735803;82;21491;-42
2022/05/12 02:17:03;;;;;;;6.92;2.52;;;;;;;6.42;71.07;100807.16;1735879;82;20976;-42
2022/05/12 02:19:30;;;;;;;4.97;2.20;;;;;;;6.50;70.06;100801.17;1735967;82;21047;-42
2022/05/12 02:22:00;;;;;;;6.03;2.20;;;;;;;6.61;67.61;100799.08;1735880;82;21105;-43
2022/05/12 02:24:25;;;;;;;4.22;2.20;;;;;;;6.84;66.70;100796.16;1735878;82;20937;-42
2022/05/12 02:26:52;;;;;;;8.03;2.20;;;;;;;7.03;65.10;100792.74;1735842;82;20834;-43
2022/05/12 02:29:20;;;;;;;10.20;2.50;;;;;;;7.24;63.87;100795.37;1736169;82;20968;-42
2022/05/12 02:31:46;;;;;;;5.55;2.17;;;;;;;7.39;63.67;100789.36;1739674;81;20917;-43
2022/05/12 02:34:14;;;;;;;3.75;2.12;;;;;;;7.52;63.15;100789.77;1735862;82;21138;-43
2022/05/12 02:36:40;;;;;;;3.27;2.52;;;;;;;7.59;63.16;100782.91;1735966;82;21519;-43
2022/05/12 02:39:07;;;;;;;5.47;2.22;;;;;;;7.67;62.58;100782.90;1735952;82;20968;-43
2022/05/12 02:41:33;;;;;;;4.05;2.15;;;;;;;7.76;61.43;100779.88;1735770;82;20917;-43
2022/05/12 02:44:00;;;;;;;7.60;2.30;;;;;;;7.89;61.54;100783.72;1736016;82;20882;-43
2022/05/12 02:46:26;;;;;;;7.50;2.02;;;;;;;7.97;60.52;100778.55;1735995;82;21198;-43
2022/05/12 02:48:53;;;;;;;8.20;2.10;;;;;;;8.13;60.48;100779.36;1714502;82;20932;-43
2022/05/12 02:51:20;;;;;;;5.28;2.20;;;;;;;8.26;59.50;100781.47;1735911;82;21008;-43
2022/05/12 02:53:46;;;;;;;5.45;2.10;;;;;;;8.42;58.53;100784.84;1736247;82;21522;-43
2022/05/12 02:56:13;;;;;;;4.00;2.08;;;;;;;8.59;57.73;100786.95;1735878;81;20984;-43
2022/05/12 02:58:42;;;;;;;4.72;1.67;;;;;;;8.73;57.16;100780.42;1735794;81;20881;-43
2022/05/12 03:01:09;;;;;;;4.17;2.00;;;;;;;8.85;57.45;100786.40;1735859;82;21483;-42
2022/05/12 03:03:35;;;;;;;4.92;1.72;;;;;;;8.95;55.92;100780.30;1735984;82;20948;-43
2022/05/12 03:06:02;;;;;;;3.60;1.98;;;;;;;9.08;55.70;100776.33;1735801;82;20925;-43
2022/05/12 03:08:29;;;;;;;3.65;1.75;;;;;;;9.20;55.83;100780.97;1715187;82;21628;-43
2022/05/12 03:10:56;;;;;;;4.67;1.80;;;;;;;9.30;55.39;100782.21;1735945;82;21130;-43
2022/05/12 03:13:23;;;;;;;5.90;1.90;;;;;;;9.40;55.82;100783.84;1735723;82;20826;-43
2022/05/12 03:15:49;;;;;;;4.95;2.00;;;;;;;9.49;55.22;100791.53;1735822;82;20889;-43
2022/05/12 03:18:17;;;;;;;5.42;2.12;;;;;;;9.61;54.97;100789.27;1735848;82;20890;-43
2022/05/12 03:20:44;;;;;;;7.75;2.05;;;;;;;9.72;54.48;100786.56;1735864;82;20933;-40
2022/05/12 03:23:11;;;;;;;9.20;2.00;;;;;;;9.85;54.58;100791.62;1735943;82;21741;-40
2022/05/12 03:25:41;;;;;;;3.25;1.57;;;;;;;9.96;54.31;100788.93;1735878;82;21652;-40
2022/05/12 03:28:07;;;;;;;7.42;2.10;;;;;;;10.09;53.97;100783.19;1735886;82;21534;-41
2022/05/12 03:30:34;;;;;;;3.95;2.10;;;;;;;10.21;54.03;100786.91;1735954;82;20898;-40
2022/05/12 03:33:02;;;;;;;5.35;1.80;;;;;;;10.32;53.76;100794.13;1735851;82;20913;-41
2022/05/12 03:35:28;;;;;;;5.58;1.90;;;;;;;10.48;54.23;100791.37;1714977;82;21148;-40
2022/05/12 03:37:55;;;;;;;3.52;1.70;;;;;;;10.59;53.52;100792.11;1735875;81;20929;-41
2022/05/12 03:40:22;;;;;;;7.72;1.60;;;;;;;10.73;52.67;100794.92;1736074;82;21503;-42
2022/05/12 03:42:50;;;;;;;2.83;1.52;;;;;;;10.86;52.95;100795.61;1735877;82;21553;-42
2022/05/12 03:45:17;;;;;;;4.03;2.00;;;;;;;10.96;52.09;100795.92;1736127;82;20921;-42
2022/05/12 03:47:48;;;;;;;5.83;1.57;;;;;;;11.08;52.62;100796.17;1736005;81;21259;-42
2022/05/12 03:50:15;;;;;;;3.25;1.72;;;;;;;11.18;52.17;100789.96;1735765;82;21452;-42
2022/05/12 03:52:42;;;;;;;3.22;1.87;;;;;;;11.29;51.99;100792.38;1736066;82;21471;-41
2022/05/12 03:55:11;;;;;;;3.95;1.82;;;;;;;11.41;51.54;100795.22;1736085;82;20972;-42
2022/05/12 03:57:39;;;;;;;10.15;1.90;;;;;;;11.54;51.87;100789.84;1735972;82;21475;-42
2022/05/12 04:00:07;;;;;;;17.20;2.47;;;;;;;11.67;51.89;100795.21;1735890;81;21043;-42
2022/05/12 04:02:36;;;;;;;9.35;2.42;;;;;;;11.81;52.40;100798.02;1736006;82;20973;-42
2022/05/12 04:05:04;;;;;;;17.02;2.00;;;;;;;11.92;51.42;100798.23;1735997;82;20968;-42
2022/05/12 04:07:31;;;;;;;4.67;1.85;;;;;;;12.01;50.99;100806.75;1735966;82;20964;-42
2022/05/12 04:10:00;;;;;;;4.30;1.70;;;;;;;12.06;50.63;100799.30;1735955;82;20933;-41
2022/05/12 04:12:28;;;;;;;3.20;1.75;;;;;;;12.13;49.98;100806.53;1736038;82;21782;-41
2022/05/12 04:14:54;;;;;;;8.70;1.95;;;;;;;12.20;49.81;100812.44;1735917;81;21531;-41
2022/05/12 04:17:21;;;;;;;4.45;1.75;;;;;;;12.25;50.28;100808.03;1735914;82;20921;-42
2022/05/12 04:19:50;;;;;;;2.80;1.70;;;;;;;12.29;50.16;100802.32;1736001;82;20976;-42
2022/05/12 04:22:17;;;;;;;4.33;2.10;;;;;;;12.33;50.33;100803.53;1736193;82;20985;-41
2022/05/12 04:24:44;;;;;;;8.25;1.80;;;;;;;12.37;50.31;100801.71;1704046;84;21136;-42
2022/05/12 04:27:11;;;;;;;9.75;2.10;;;;;;;12.43;50.46;100799.44;1700838;84;20921;-42
2022/05/12 04:29:42;;;;;;;15.13;2.42;;;;;;;12.53;50.63;100802.28;1695960;83;21023;-42
2022/05/12 04:32:09;;;;;;;12.65;2.08;;;;;;;12.69;51.01;100800.63;1695934;84;20885;-42
2022/05/12 04:37:29;;;;;;;3.47;1.65;;;;;;;13.11;49.73;100801.86;1696137;84;21866;-42
2022/05/12 04:40:14;;;;;;;3.45;1.60;;;;;;;13.33;47.81;100803.48;1695915;83;20944;-43
2022/05/12 04:42:41;;;;;;;4.12;1.90;;;;;;;13.61;47.92;100803.29;1695864;83;20968;-43
2022/05/12 04:45:09;;;;;;;2.87;1.95;;;;;;;13.92;48.01;100803.78;1695759;83;21580;-41
2022/05/12 04:47:38;;;;;;;5.67;1.70;;;;;;;14.23;47.30;100802.49;1695941;84;21126;-42
2022/05/12 04:50:07;;;;;;;11.53;2.27;;;;;;;14.59;47.49;100798.00;1695984;84;21763;-43
2022/05/12 04:52:34;;;;;;;11.43;2.10;;;;;;;15.00;46.88;100801.58;1695940;84;20996;-42
2022/05/12 04:55:01;;;;;;;9.85;1.85;;;;;;;15.42;45.58;100794.58;1695959;84;20937;-42
2022/05/12 04:57:29;;;;;;;5.80;1.62;;;;;;;15.79;45.46;100796.39;1695973;84;21023;-42
2022/05/12 04:59:56;;;;;;;4.10;1.95;;;;;;;16.17;43.17;100794.21;1665523;84;21004;-43
2022/05/12 05:02:23;;;;;;;5.25;2.15;;;;;;;16.43;43.41;100793.70;1696058;84;21074;-43
2022/05/12 05:04:49;;;;;;;10.65;2.50;;;;;;;16.69;42.74;100791.85;1695857;84;20980;-43
2022/05/12 05:07:16;;;;;;;9.70;2.22;;;;;;;16.89;41.96;100796.29;1666244;84;21530;-42
2022/05/12 05:09:43;;;;;;;15.28;2.50;;;;;;;17.04;41.13;100803.14;1695875;83;21030;-42
2022/05/12 05:12:10;;;;;;;25.72;2.47;;;;;;;17.21;40.42;100804.62;1695954;84;20925;-43
2022/05/12 05:14:37;;;;;;;43.17;3.75;;;;;;;17.46;39.86;100808.85;1695996;84;21291;-43
2022/05/12 05:17:04;;;;;;;18.25;2.20;;;;;;;17.74;39.89;100805.06;1696149;84;21004;-43
2022/05/12 05:19:31;;;;;;;6.78;2.22;;;;;;;18.01;38.51;100808.73;1696086;84;21498;-42
2022/05/12 05:21:57;;;;;;;6.97;2.25;;;;;;;18.26;37.70;100802.87;1695707;83;21004;-43
2022/05/12 05:24:24;;;;;;;13.10;2.15;;;;;;;18.52;37.93;100801.66;1696053;84;20999;-44
2022/05/12 05:26:53;;;;;;;7.40;2.20;;;;;;;18.75;37.24;100801.91;1696061;84;21145;-42
2022/05/12 05:29:20;;;;;;;10.03;2.15;;;;;;;18.95;36.83;100806.20;1695979;84;21597;-42
2022/05/12 05:31:46;;;;;;;3.92;2.00;;;;;;;19.18;36.72;100806.02;1695962;84;21062;-42
2022/05/12 05:34:13;;;;;;;7.05;2.40;;;;;;;19.34;35.84;100799.09;1696057;84;21498;-42
2022/05/12 05:36:44;;;;;;;8.33;2.25;;;;;;;19.48;36.09;100797.57;1696016;84;20904;-42
2022/05/12 05:39:10;;;;;;;7.90;2.33;;;;;;;19.74;35.89;100790.97;1695723;83;21098;-43
2022/05/12 05:41:38;;;;;;;4.75;1.82;;;;;;;19.98;34.90;100787.19;1695930;84;21522;-42
2022/05/12 05:44:06;;;;;;;7.17;1.92;;;;;;;20.06;34.96;100783.20;1696120;83;20865;-42
2022/05/12 05:46:32;;;;;;;5.92;1.77;;;;;;;20.13;34.42;100779.79;1695841;83;20972;-42
2022/05/12 05:48:59;;;;;;;45.52;4.05;;;;;;;20.21;33.48;100779.37;1695958;84;20979;-42
2022/05/12 05:54:12;;;;;;;12.13;2.33;;;;;;;20.38;32.75;100778.46;1695692;84;20917;-43
2022/05/12 05:56:39;;;;;;;7.37;2.27;;;;;;;20.49;32.56;100784.45;1695958;84;20967;-42
2022/05/12 05:59:05;;;;;;;59.40;3.90;;;;;;;20.56;32.02;100784.48;1695842;84;20937;-42
2022/05/12 06:01:33;;;;;;;16.65;2.35;;;;;;;20.55;32.35;100788.04;1695907;83;21007;-42
2022/05/12 06:03:59;;;;;;;34.25;3.20;;;;;;;20.60;31.72;100783.85;1695953;84;21759;-42
2022/05/12 06:06:27;;;;;;;48.55;4.70;;;;;;;20.62;31.91;100778.91;1695784;84;21078;-42
2022/05/12 06:08:53;;;;;;;57.58;4.37;;;;;;;20.72;32.33;100782.32;1643797;84;20925;-42
2022/05/12 06:11:20;;;;;;;13.13;2.30;;;;;;;20.74;32.27;100786.58;1695805;83;20972;-43
2022/05/12 06:13:47;;;;;;;57.62;4.03;;;;;;;20.80;32.11;100783.63;1695978;83;20961;-43
2022/05/12 06:16:16;;;;;;;27.90;3.60;;;;;;;20.91;32.86;100777.75;1695877;84;21107;-43
2022/05/12 06:18:42;;;;;;;23.47;2.95;;;;;;;21.05;30.89;100778.73;1695784;83;21561;-43
2022/05/12 06:21:11;;;;;;;29.37;3.08;;;;;;;21.07;31.08;100775.09;1695766;83;20999;-43
2022/05/12 06:23:40;;;;;;;36.20;3.52;;;;;;;21.23;31.69;100776.84;1695927;84;20893;-43
2022/05/12 06:26:13;;;;;;;10.18;2.47;;;;;;;21.33;30.24;100776.67;1695883;84;21084;-43
2022/05/12 06:28:35;;;;;;;17.75;2.75;;;;;;;21.41;29.46;100769.64;1694928;84;21170;-43
2022/05/12 06:31:02;;;;;;;91.92;6.87;;;;;;;21.54;29.82;100773.22;1695875;84;20905;-43
2022/05/12 06:33:28;;;;;;;10.20;1.70;;;;;;;21.68;29.41;100763.69;1696075;84;21502;-43
2022/05/12 06:35:58;;;;;;;66.12;5.22;;;;;;;21.76;28.38;100765.38;1696024;83;20960;-43
2022/05/12 06:38:25;;;;;;;24.77;2.75;;;;;;;21.81;29.05;100769.06;1695741;84;21000;-44
2022/05/12 06:40:52;;;;;;;26.10;3.15;;;;;;;21.97;29.83;100772.91;1696112;84;21514;-43
2022/05/12 06:43:19;;;;;;;24.92;2.60;;;;;;;22.16;29.40;100766.51;1687850;83;20917;-43
2022/05/12 06:45:47;;;;;;;4.40;2.05;;;;;;;22.13;27.59;100757.48;1695950;84;20952;-43
2022/05/12 06:48:13;;;;;;;27.40;2.60;;;;;;;22.04;27.70;100754.45;1695819;83;20989;-43
2022/05/12 06:50:40;;;;;;;12.43;2.55;;;;;;;22.07;27.93;100754.26;1695826;83;20991;-43
2022/05/12 06:53:07;;;;;;;8.20;1.90;;;;;;;22.15;28.24;100755.59;1695933;84;21147;-43
2022/05/12 06:55:34;;;;;;;8.18;1.60;;;;;;;22.29;27.44;100750.28;1695773;83;20948;-42
2022/05/12 06:58:01;;;;;;;8.68;1.45;;;;;;;22.47;26.74;100745.64;1695841;83;20968;-45
2022/05/12 07:00:27;;;;;;;9.45;1.40;;;;;;;22.49;26.88;100753.47;1695867;84;21028;-43
2022/05/12 07:02:55;;;;;;;7.15;2.02;;;;;;;22.52;26.77;100757.23;1695938;84;20976;-43
2022/05/12 07:05:24;;;;;;;14.00;2.50;;;;;;;22.56;25.41;100752.61;1696021;84;21238;-43
2022/05/12 07:07:52;;;;;;;5.92;2.00;;;;;;;22.50;25.69;100746.80;1695749;83;20974;-43
2022/05/12 07:10:20;;;;;;;6.90;1.90;;;;;;;22.49;27.25;100753.47;1695844;84;21473;-43
2022/05/12 07:12:47;;;;;;;3.83;1.98;;;;;;;22.59;26.37;100753.23;1695785;84;20963;-43
2022/05/12 07:15:14;;;;;;;3.10;2.08;;;;;;;22.62;26.00;100754.39;1695902;84;21011;-43
2022/05/12 07:17:43;;;;;;;8.40;2.75;;;;;;;22.77;25.93;100762.23;1695798;84;21201;-43
2022/05/12 07:28:33;;;;;;;6.30;2.20;;;;;;;23.31;25.37;100743.33;1696079;83;21541;-43
2022/05/12 07:31:01;;;;;;;7.33;2.98;;;;;;;23.49;25.84;100748.68;1666645;84;21890;-45
2022/05/12 07:33:39;;;;;;;6.58;2.20;;;;;;;23.61;25.56;100756.70;1696000;84;21011;-44
2022/05/12 07:36:12;;;;;;;17.35;2.90;;;;;;;23.81;24.33;100756.17;1696031;84;21115;-44
2022/05/12 07:38:39;;;;;;;4.22;2.62;;;;;;;23.70;24.41;100749.48;1695921;84;21012;-42
2022/05/12 07:41:07;;;;;;;7.72;2.75;;;;;;;23.72;25.39;100746.25;1696150;84;21371;-44
2022/05/12 07:43:33;;;;;;;4.10;2.52;;;;;;;23.93;24.78;100739.09;1696028;84;21245;-42
2022/05/12 07:46:01;;;;;;;6.45;2.27;;;;;;;23.84;24.65;100741.91;1695929;84;21086;-43
2022/05/12 07:48:27;;;;;;;4.85;2.10;;;;;;;23.89;23.82;100746.39;1696054;84;21278;-43
2022/05/12 07:50:54;;;;;;;6.72;2.27;;;;;;;23.89;23.49;100746.88;1696011;84;20964;-43
2022/05/12 07:53:20;;;;;;;5.05;2.37;;;;;;;23.77;23.62;100745.94;1695852;83;21598;-43
2022/05/12 07:55:48;;;;;;;6.87;1.92;;;;;;;23.81;24.66;100743.45;1695964;84;21306;-43
2022/05/12 07:58:16;;;;;;;6.42;2.02;;;;;;;24.10;23.90;100740.08;1695973;84;21004;-44
2022/05/12 08:00:43;;;;;;;8.78;2.40;;;;;;;24.33;24.78;100740.72;1701234;83;21447;-43
2022/05/12 08:03:11;;;;;;;5.35;1.85;;;;;;;24.65;24.00;100738.37;1711077;82;21019;-43
2022/05/12 08:05:38;;;;;;;5.80;1.90;;;;;;;24.78;22.93;100737.02;1701326;84;21039;-43
2022/05/12 08:08:06;;;;;;;5.72;1.82;;;;;;;24.66;24.20;100740.52;1711165;83;21301;-43
2022/05/12 08:10:34;;;;;;;3.40;1.80;;;;;;;24.63;23.46;100744.26;1657336;84;20948;-45
2022/05/12 08:13:01;;;;;;;7.62;1.87;;;;;;;24.60;23.23;100738.34;1701764;84;21541;-42
2022/05/12 08:15:27;;;;;;;3.02;1.98;;;;;;;24.70;24.19;100751.73;1711119;83;21517;-43
2022/05/12 08:17:56;;;;;;;2.05;1.80;;;;;;;24.64;23.23;100747.73;1701570;84;21004;-43
2022/05/12 08:20:23;;;;;;;3.92;1.98;;;;;;;24.55;24.01;100749.25;1711120;83;22010;-43
2022/05/12 08:22:51;;;;;;;7.15;1.72;;;;;;;24.50;22.82;100742.13;1701714;84;21047;-43
2022/05/12 08:25:18;;;;;;;3.22;1.80;;;;;;;24.47;23.46;100739.22;1711198;83;20991;-43
2022/05/12 08:27:45;;;;;;;4.03;1.90;;;;;;;24.49;23.17;100732.51;1701229;83;20999;-43
2022/05/12 08:30:15;;;;;;;4.62;1.70;;;;;;;24.61;22.39;100732.91;1710946;83;20925;-43
2022/05/12 08:32:42;;;;;;;4.10;1.77;;;;;;;24.73;23.17;100723.72;1701354;84;22439;-44
2022/05/12 08:35:09;;;;;;;2.85;1.60;;;;;;;24.84;22.46;100722.95;1711003;83;20921;-43
2022/05/12 08:37:37;;;;;;;9.23;1.90;;;;;;;24.80;24.31;100726.30;1701341;84;20943;-43
2022/05/12 08:40:05;;;;;;;3.67;2.00;;;;;;;24.94;22.12;100726.13;1711202;82;20900;-43
2022/05/12 08:42:36;;;;;;;2.92;1.67;;;;;;;25.05;22.64;100721.80;1682599;85;21478;-44
2022/05/12 08:45:06;;;;;;;9.48;2.35;;;;;;;25.27;23.20;100715.73;1698849;84;21055;-44
2022/05/12 08:47:36;;;;;;;9.28;1.40;;;;;;;25.47;22.16;100714.22;1710928;82;20892;-43
2022/05/12 08:50:04;;;;;;;2.47;1.87;;;;;;;25.54;21.84;100715.42;1701356;84;20972;-43
2022/05/12 08:52:40;;;;;;;4.37;1.52;;;;;;;25.56;21.26;100710.02;1711101;82;21553;-45
2022/05/12 08:55:36;;;;;;;7.10;1.80;;;;;;;25.64;21.05;100702.77;1701385;84;20936;-43
2022/05/12 08:58:33;;;;;;;6.10;1.50;;;;;;;25.79;20.78;100702.06;1711086;83;21267;-43
2022/05/12 09:01:17;;;;;;;7.53;1.52;;;;;;;25.98;21.60;100694.80;1715643;83;21539;-43
2022/05/12 09:04:14;;;;;;;2.30;1.50;;;;;;;26.23;21.35;100688.37;1717012;83;21040;-48
2022/05/12 09:07:12;;;;;;;5.28;1.50;;;;;;;26.50;20.84;100691.55;1716571;83;20934;-43
2022/05/12 09:10:13;;;;;;;5.45;1.90;;;;;;;26.79;21.12;100689.61;1721751;83;21457;-44
2022/05/12 09:13:16;;;;;;;13.53;1.98;;;;;;;26.87;19.85;100690.33;1692606;83;22108;-45
2022/05/12 09:15:59;;;;;;;11.85;1.35;;;;;;;26.74;19.81;100688.66;1692651;84;21003;-44
2022/05/12 09:18:31;;;;;;;9.08;1.40;;;;;;;26.63;20.37;100690.05;1671790;84;20915;-43
2022/05/12 09:21:05;;;;;;;16.80;1.50;;;;;;;26.65;20.69;100681.00;1721539;83;20962;-43
2022/05/12 09:23:32;;;;;;;5.33;1.05;;;;;;;26.60;21.34;100681.02;1721491;83;20964;-46
2022/05/12 09:25:59;;;;;;;6.10;1.50;;;;;;;26.77;20.79;100682.27;1692695;83;21074;-43
2022/05/12 09:28:35;;;;;;;6.20;1.70;;;;;;;26.92;21.35;100686.33;1667195;84;21512;-44
2022/05/12 09:31:16;;;;;;;;;;;;;;;27.09;21.02;100675.59;1695381;84;21492;-43
2022/05/12 09:33:46;;;;;;;5.95;1.30;;;;;;;27.31;21.33;100674.22;1687269;83;20089;-43
2022/05/12 09:36:28;;;;;;;2.05;1.20;;;;;;;27.37;19.91;100663.05;1692698;84;21011;-44
2022/05/12 09:38:55;;;;;;;5.25;1.45;;;;;;;27.43;20.78;100662.55;1691943;84;21272;-44
2022/05/12 09:41:33;;;;;;;16.77;1.80;;;;;;;27.64;20.00;100657.19;1721542;83;20892;-43
2022/05/12 09:43:59;;;;;;;6.12;1.20;;;;;;;27.72;19.06;100662.31;1706368;84;21351;-44
2022/05/12 09:46:29;;;;;;;3.98;1.27;;;;;;;27.64;19.50;100658.99;1658665;84;20905;-44
2022/05/12 09:49:16;;;;;;;2.58;1.32;;;;;;;27.40;19.21;100658.80;1709950;84;21394;-44
2022/05/12 09:51:43;;;;;;;15.45;1.75;;;;;;;27.41;18.59;100664.50;1686105;84;21159;-44
2022/05/12 09:54:25;;;;;;;4.37;1.52;;;;;;;27.43;18.91;100656.38;1709821;84;21035;-44
2022/05/12 09:57:15;;;;;;;1.90;1.42;;;;;;;27.46;18.74;100657.44;1709736;84;20882;-44
2022/05/12 09:59:46;;;;;;;13.22;1.92;;;;;;;27.49;18.66;100646.06;1704437;83;20908;-45
2022/05/12 10:08:24;;;;;;;1.17;1.07;;;;;;;27.35;19.29;100643.75;1686759;83;20932;-44
2022/05/12 10:10:59;;;;;;;7.87;1.57;;;;;;;27.24;19.10;100640.22;1686628;84;21498;-45
2022/05/12 10:13:41;;;;;;;6.50;1.50;;;;;;;27.18;19.40;100639.44;1686905;85;21572;-44
2022/05/12 10:16:09;;;;;;;1.55;1.17;;;;;;;27.02;20.43;100649.18;1686748;85;21003;-45
2022/05/12 10:18:51;;;;;;;4.83;1.20;;;;;;;27.14;19.61;100639.31;1686904;85;21469;-44
2022/05/12 10:21:27;;;;;;;6.20;1.25;;;;;;;27.22;19.06;100638.19;1686639;85;20984;-43
2022/05/12 10:24:35;;;;;;;12.10;1.90;;;;;;;27.25;19.68;100639.25;1686723;83;20897;-44
2022/05/12 10:27:16;;;;;;;5.78;1.00;;;;;;;27.30;19.23;100634.02;1687000;85;21489;-44
2022/05/12 10:30:00;;;;;;;8.48;1.52;;;;;;;27.59;20.43;100631.51;1686683;85;20992;-44
2022/05/12 10:32:55;;;;;;;6.05;1.25;;;;;;;27.91;19.40;100624.28;1686836;83;21059;-43
2022/05/12 10:35:45;;;;;;;3.55;1.42;;;;;;;28.05;19.69;100618.56;1734169;82;21451;-44
2022/05/12 10:38:21;;;;;;;8.80;1.90;;;;;;;28.14;19.27;100616.90;1735937;82;20948;-44
2022/05/12 10:40:55;;;;;;;12.82;2.27;;;;;;;28.02;19.22;100609.54;1735526;82;20947;-44
2022/05/12 10:43:33;;;;;;;7.65;1.60;;;;;;;28.08;20.15;100612.14;1735989;81;20925;-44
2022/05/12 10:46:20;;;;;;;6.72;1.70;;;;;;;28.14;18.89;100600.08;1735417;82;21280;-44
2022/05/12 10:49:18;;;;;;;43.73;3.15;;;;;;;28.16;18.77;100592.36;1735869;82;21017;-44
2022/05/12 10:51:59;;;;;;;30.72;2.90;;;;;;;28.15;18.45;100585.80;1736138;82;21470;-44
2022/05/12 10:54:54;;;;;;;12.10;2.30;;;;;;;27.85;20.44;100595.11;1734198;82;21743;-43
2022/05/12 10:57:35;;;;;;;18.23;2.45;;;;;;;27.78;19.73;100593.48;1736016;82;20881;-44
2022/05/12 11:00:49;;;;;;;11.73;1.87;;;;;;;27.94;20.18;100583.63;1735893;81;21135;-44
2022/05/12 11:03:29;;;;;;;81.55;5.05;;;;;;;28.18;19.15;100578.42;1735733;82;21027;-44
2022/05/12 11:06:02;;;;;;;89.62;5.20;;;;;;;28.17;18.65;100582.57;1735849;82;20976;-44
2022/05/12 11:08:51;;;;;;;23.85;2.67;;;;;;;27.95;18.41;100581.83;1735736;82;21015;-44
2022/05/12 11:11:28;;;;;;;9.85;1.52;;;;;;;27.71;19.50;100577.73;1735898;82;20925;-44
2022/05/12 11:16:16;;;;;;;27.15;2.70;;;;;;;27.42;19.32;100559.89;1798340;79;22626;-45
2022/05/12 11:18:58;;;;;;;10.98;1.80;;;;;;;27.24;19.09;100556.55;1758436;80;20978;-46
2022/05/12 11:21:29;;;;;;;13.78;1.80;;;;;;;27.24;20.41;100559.20;1757183;81;21146;-45
2022/05/12 11:24:01;;;;;;;7.90;1.67;;;;;;;27.32;19.20;100551.03;1758214;81;21526;-44
2022/05/12 11:26:53;;;;;;;6.08;1.80;;;;;;;27.36;19.37;100537.83;1758077;81;20932;-44
2022/05/12 11:30:01;;;;;;;5.37;1.37;;;;;;;27.45;19.55;100539.69;1758053;81;21702;-45
2022/05/12 11:32:36;;;;;;;5.03;1.67;;;;;;;27.76;18.37;100538.76;1758256;81;20854;-44
2022/05/12 11:35:13;;;;;;;8.30;1.37;;;;;;;27.93;18.14;100531.42;1758224;81;21269;-43
2022/05/12 11:37:53;;;;;;;3.40;1.60;;;;;;;27.83;17.99;100514.14;1752551;81;21479;-43
2022/05/12 11:40:48;;;;;;;5.87;1.75;;;;;;;27.75;17.56;100524.64;1758139;81;21459;-45
2022/05/12 11:47:01;;;;;;;3.12;1.35;;;;;;;28.03;18.60;100510.15;1684387;84;21040;-45
2022/05/12 11:49:42;;;;;;;8.43;1.45;;;;;;;28.13;17.65;100515.46;1683780;85;21186;-44
2022/05/12 11:52:53;;;;;;;10.43;1.72;;;;;;;28.17;18.15;100505.42;1739645;82;20992;-44
2022/05/12 11:55:35;;;;;;;8.30;1.40;;;;;;;28.16;19.35;100514.35;1749959;82;21395;-45
2022/05/12 11:58:11;;;;;;;8.53;1.55;;;;;;;28.23;18.05;100512.31;1747552;82;20885;-45
2022/05/12 12:00:53;;;;;;;8.45;1.57;;;;;;;28.25;17.62;100499.70;1749773;81;21443;-44
2022/05/12 12:03:25;;;;;;;37.65;2.77;;;;;;;28.24;18.01;100495.38;1749739;82;21189;-45
2022/05/12 12:05:59;;;;;;;8.80;2.00;;;;;;;28.20;18.57;100489.17;1749562;82;20908;-45
2022/05/12 12:08:43;;;;;;;50.52;2.60;;;;;;;28.12;18.69;100491.17;1749661;82;21499;-46
2022/05/12 12:11:22;;;;;;;18.23;2.30;;;;;;;28.27;18.48;100482.28;1749688;80;20889;-44